createdAt,value
2022-10-09T00:01:13.743Z,10.24
2022-10-09T00:03:42.016Z,10.22
2022-10-09T00:06:10.104Z,10.19
2022-10-09T00:08:39.381Z,10.19
2022-10-09T00:11:08.859Z,10.16
2022-10-09T00:13:35.734Z,10.15
2022-10-09T00:16:08.261Z,10.15
2022-10-09T00:18:34.826Z,10.12
2022-10-09T00:21:01.697Z,10.07
2022-10-09T00:23:28.408Z,10.03
2022-10-09T00:26:00.382Z,10.03
2022-10-09T00:28:30.056Z,10.02
2022-10-09T00:30:56.953Z,9.99
2022-10-09T00:33:23.733Z,9.91
2022-10-09T00:35:50.687Z,9.90
2022-10-09T00:38:17.283Z,9.90
2022-10-09T00:40:44.000Z,9.85
2022-10-09T00:43:17.087Z,9.85
2022-10-09T00:45:49.929Z,9.85
2022-10-09T00:48:18.874Z,9.79
2022-10-09T00:50:51.943Z,9.78
2022-10-09T00:53:20.985Z,9.77
2022-10-09T00:55:47.605Z,9.77
2022-10-09T00:58:14.480Z,9.77
2022-10-09T01:00:41.268Z,9.74
2022-10-09T01:03:08.107Z,9.74
2022-10-09T01:05:49.931Z,9.70
2022-10-09T01:08:25.943Z,9.69
2022-10-09T01:10:55.374Z,9.68
2022-10-09T01:13:42.734Z,9.68
2022-10-09T01:16:35.425Z,9.62
2022-10-09T01:19:07.587Z,9.65
2022-10-09T01:21:42.852Z,9.65
2022-10-09T01:24:11.851Z,9.59
2022-10-09T01:27:10.199Z,9.59
2022-10-09T01:29:42.436Z,9.52
2022-10-09T01:32:12.239Z,9.50
2022-10-09T01:34:41.873Z,9.52
2022-10-09T01:37:10.978Z,9.50
2022-10-09T01:39:38.940Z,9.47
2022-10-09T01:42:05.867Z,9.43
2022-10-09T01:44:33.365Z,9.45
2022-10-09T01:47:00.705Z,9.43
2022-10-09T01:49:33.502Z,9.35
2022-10-09T01:52:24.145Z,9.37
2022-10-09T01:55:08.703Z,9.38
2022-10-09T01:57:46.991Z,9.35
2022-10-09T02:00:17.107Z,9.32
2022-10-09T02:02:44.735Z,9.29
2022-10-09T02:05:17.586Z,9.27
2022-10-09T02:07:43.984Z,9.31
2022-10-09T02:10:11.003Z,9.31
2022-10-09T02:12:42.264Z,9.30
2022-10-09T02:15:09.904Z,9.25
2022-10-09T02:17:42.540Z,9.23
2022-10-09T02:20:32.724Z,9.25
2022-10-09T02:23:02.319Z,9.14
2022-10-09T02:25:29.228Z,9.11
2022-10-09T02:27:55.997Z,9.12
2022-10-09T02:30:26.872Z,9.13
2022-10-09T02:32:54.485Z,9.09
2022-10-09T02:35:21.618Z,9.05
2022-10-09T02:37:49.092Z,9.03
2022-10-09T02:40:15.976Z,9.02
2022-10-09T02:42:42.391Z,8.96
2022-10-09T02:45:09.504Z,8.92
2022-10-09T02:47:35.956Z,8.92
2022-10-09T02:50:02.304Z,8.87
2022-10-09T02:52:28.964Z,8.84
2022-10-09T02:54:55.309Z,8.84
2022-10-09T02:57:21.733Z,8.82
2022-10-09T02:59:48.060Z,8.81
2022-10-09T03:02:15.028Z,8.79
2022-10-09T03:04:41.548Z,8.75
2022-10-09T03:07:07.978Z,8.72
2022-10-09T03:09:34.436Z,8.72
2022-10-09T03:12:00.772Z,8.64
2022-10-09T03:14:27.231Z,8.62
2022-10-09T03:16:53.644Z,8.61
2022-10-09T03:19:20.000Z,8.51
2022-10-09T03:21:46.336Z,8.56
2022-10-09T03:24:12.690Z,8.57
2022-10-09T03:26:39.092Z,8.53
2022-10-09T03:29:05.425Z,8.55
2022-10-09T03:31:52.546Z,8.54
2022-10-09T03:34:18.148Z,8.50
2022-10-09T03:36:44.652Z,8.52
2022-10-09T03:39:11.101Z,8.53
2022-10-09T03:41:37.478Z,8.49
2022-10-09T03:44:03.934Z,8.48
2022-10-09T03:46:30.342Z,8.47
2022-10-09T03:48:57.116Z,8.44
2022-10-09T03:51:23.465Z,8.43
2022-10-09T03:53:49.894Z,8.40
2022-10-09T03:56:16.285Z,8.35
2022-10-09T03:58:42.918Z,8.34
2022-10-09T04:01:09.618Z,8.32
2022-10-09T04:03:36.038Z,8.29
2022-10-09T04:06:02.679Z,8.24
2022-10-09T04:08:29.079Z,8.24
2022-10-09T04:10:59.578Z,8.29
2022-10-09T04:13:26.240Z,8.29
2022-10-09T04:15:53.997Z,8.30
2022-10-09T04:18:20.531Z,8.28
2022-10-09T04:20:51.191Z,8.30
2022-10-09T04:23:22.720Z,8.28
2022-10-09T04:25:55.823Z,8.28
2022-10-09T04:28:23.369Z,8.23
2022-10-09T04:30:50.076Z,8.24
2022-10-09T04:33:16.577Z,8.25
2022-10-09T04:35:43.704Z,8.27
2022-10-09T04:38:10.384Z,8.26
2022-10-09T04:40:37.027Z,8.23
2022-10-09T04:43:03.703Z,8.20
2022-10-09T04:45:30.065Z,8.17
2022-10-09T04:47:56.537Z,8.18
2022-10-09T04:50:23.139Z,8.14
2022-10-09T04:52:50.058Z,8.13
2022-10-09T04:55:16.771Z,8.10
2022-10-09T04:57:43.204Z,8.10
2022-10-09T05:00:10.243Z,8.09
2022-10-09T05:02:36.738Z,8.05
2022-10-09T05:05:03.270Z,8.05
2022-10-09T05:07:29.695Z,8.05
2022-10-09T05:09:56.032Z,8.03
2022-10-09T05:12:22.394Z,7.99
2022-10-09T05:14:48.781Z,7.97
2022-10-09T05:17:15.696Z,7.96
2022-10-09T05:19:43.545Z,7.93
2022-10-09T05:22:09.899Z,7.91
2022-10-09T05:24:36.221Z,7.91
2022-10-09T05:27:02.606Z,7.89
2022-10-09T05:29:28.942Z,7.86
2022-10-09T05:31:55.346Z,7.84
2022-10-09T05:34:21.762Z,7.84
2022-10-09T05:36:48.080Z,7.81
2022-10-09T05:39:14.535Z,7.80
2022-10-09T05:41:40.852Z,7.78
2022-10-09T05:44:07.263Z,7.77
2022-10-09T05:46:33.781Z,7.76
2022-10-09T05:49:05.158Z,7.75
2022-10-09T05:51:33.959Z,7.75
2022-10-09T05:54:04.023Z,7.71
2022-10-09T05:56:33.050Z,7.67
2022-10-09T05:59:01.983Z,7.60
2022-10-09T06:01:31.690Z,7.62
2022-10-09T06:03:59.821Z,7.61
2022-10-09T06:06:29.040Z,7.65
2022-10-09T06:08:55.846Z,7.67
2022-10-09T06:11:31.545Z,7.69
2022-10-09T06:14:00.201Z,7.65
2022-10-09T06:16:29.716Z,7.60
2022-10-09T06:18:56.892Z,7.57
2022-10-09T06:21:23.967Z,7.57
2022-10-09T06:23:56.295Z,7.60
2022-10-09T06:26:24.318Z,7.63
2022-10-09T06:28:51.253Z,7.61
2022-10-09T06:31:20.421Z,7.60
2022-10-09T06:33:48.730Z,7.63
2022-10-09T06:36:19.670Z,7.64
2022-10-09T06:38:46.894Z,7.65
2022-10-09T06:41:18.791Z,7.65
2022-10-09T06:43:50.746Z,7.71
2022-10-09T06:46:18.160Z,7.71
2022-10-09T06:48:44.538Z,7.77
2022-10-09T06:51:15.990Z,7.82
2022-10-09T06:53:50.871Z,7.89
2022-10-09T06:56:18.490Z,7.91
2022-10-09T06:58:45.781Z,7.95
2022-10-09T07:01:18.500Z,8.03
2022-10-09T07:03:47.941Z,8.09
2022-10-09T07:06:20.769Z,8.10
2022-10-09T07:08:52.994Z,8.15
2022-10-09T07:11:22.759Z,8.21
2022-10-09T07:13:51.784Z,8.25
2022-10-09T07:16:24.064Z,8.29
2022-10-09T07:18:51.055Z,8.34
2022-10-09T07:21:17.796Z,8.41
2022-10-09T07:23:44.443Z,8.45
2022-10-09T07:26:17.545Z,8.55
2022-10-09T07:28:45.199Z,8.63
2022-10-09T07:31:12.225Z,8.68
2022-10-09T07:33:39.070Z,8.69
2022-10-09T07:36:06.819Z,8.80
2022-10-09T07:38:33.214Z,8.89
2022-10-09T07:41:08.018Z,9.00
2022-10-09T07:43:35.716Z,9.14
2022-10-09T07:46:04.176Z,9.21
2022-10-09T07:48:30.936Z,9.31
2022-10-09T07:50:57.495Z,9.48
2022-10-09T07:53:23.971Z,9.62
2022-10-09T07:55:50.549Z,9.73
2022-10-09T07:58:17.844Z,9.87
2022-10-09T08:00:44.320Z,9.99
2022-10-09T08:03:11.140Z,10.02
2022-10-09T08:05:37.684Z,10.11
2022-10-09T08:08:04.049Z,10.23
2022-10-09T08:10:31.543Z,10.35
2022-10-09T08:12:58.034Z,10.39
2022-10-09T08:15:24.884Z,10.44
2022-10-09T08:17:54.974Z,10.49
2022-10-09T08:20:21.486Z,10.59
2022-10-09T08:22:48.323Z,10.71
2022-10-09T08:25:14.972Z,10.76
2022-10-09T08:27:41.308Z,10.86
2022-10-09T08:30:08.506Z,10.93
2022-10-09T08:32:34.884Z,10.99
2022-10-09T08:35:01.263Z,11.06
2022-10-09T08:37:27.607Z,11.16
2022-10-09T08:39:53.948Z,11.18
2022-10-09T08:42:39.168Z,11.31
2022-10-09T08:45:12.789Z,11.41
2022-10-09T08:47:50.518Z,11.56
2022-10-09T08:50:24.005Z,11.60
2022-10-09T08:53:08.315Z,11.77
2022-10-09T08:55:51.053Z,11.94
2022-10-09T08:58:20.303Z,12.05
2022-10-09T09:00:55.049Z,12.09
2022-10-09T09:03:43.647Z,12.14
2022-10-09T09:06:17.803Z,12.20
2022-10-09T09:09:02.107Z,12.32
2022-10-09T09:11:44.889Z,12.43
2022-10-09T09:14:35.977Z,12.55
2022-10-09T09:17:14.458Z,12.65
2022-10-09T09:19:48.901Z,12.76
2022-10-09T09:22:16.166Z,12.80
2022-10-09T09:24:51.125Z,12.88
2022-10-09T09:27:20.073Z,13.00
2022-10-09T09:29:54.466Z,13.07
2022-10-09T09:32:23.499Z,13.10
2022-10-09T09:34:50.215Z,13.17
2022-10-09T09:37:17.065Z,13.19
2022-10-09T09:40:31.374Z,13.24
2022-10-09T09:42:30.300Z,13.35
2022-10-09T09:45:04.030Z,13.51
2022-10-09T09:47:38.849Z,13.61
2022-10-09T09:50:06.273Z,13.57
2022-10-09T09:52:38.585Z,13.71
2022-10-09T09:55:05.890Z,13.80
2022-10-09T09:57:37.156Z,13.87
2022-10-09T10:00:15.812Z,13.91
2022-10-09T10:02:42.383Z,13.98
2022-10-09T10:05:24.771Z,14.16
2022-10-09T10:07:51.709Z,14.24
2022-10-09T10:10:29.095Z,14.29
2022-10-09T10:12:59.098Z,14.42
2022-10-09T10:15:28.501Z,14.51
2022-10-09T10:18:03.579Z,14.59
2022-10-09T10:20:33.786Z,14.62
2022-10-09T10:23:00.949Z,14.67
2022-10-09T10:25:32.526Z,14.71
2022-10-09T10:28:18.069Z,14.76
2022-10-09T10:30:45.619Z,14.80
2022-10-09T10:33:29.298Z,14.85
2022-10-09T10:35:58.207Z,14.86
2022-10-09T10:38:42.472Z,14.95
2022-10-09T10:41:09.044Z,14.97
2022-10-09T10:43:38.713Z,15.01
2022-10-09T10:46:25.361Z,15.13
2022-10-09T10:48:52.339Z,15.23
2022-10-09T10:51:34.055Z,15.30
2022-10-09T10:54:28.216Z,15.34
2022-10-09T10:57:08.762Z,15.38
2022-10-09T10:59:41.974Z,15.43
2022-10-09T11:02:32.478Z,15.49
2022-10-09T11:05:18.123Z,15.62
2022-10-09T11:07:59.791Z,15.64
2022-10-09T11:11:07.334Z,15.64
2022-10-09T11:13:50.448Z,15.64
2022-10-09T11:16:45.571Z,15.70
2022-10-09T11:19:56.790Z,15.71
2022-10-09T11:23:05.196Z,15.69
2022-10-09T11:25:53.614Z,15.70
2022-10-09T11:28:28.511Z,15.85
2022-10-09T11:31:10.197Z,15.93
2022-10-09T11:33:41.557Z,15.96
2022-10-09T11:36:18.565Z,15.97
2022-10-09T11:39:23.782Z,16.01
2022-10-09T11:41:53.421Z,16.02
2022-10-09T11:44:22.773Z,15.97
2022-10-09T11:47:21.603Z,16.03
2022-10-09T11:49:57.251Z,16.19
2022-10-09T11:52:38.599Z,16.43
2022-10-09T11:55:26.624Z,16.39
2022-10-09T11:57:53.476Z,16.28
2022-10-09T12:00:33.226Z,16.41
2022-10-09T12:03:03.294Z,16.80
2022-10-09T12:05:35.960Z,16.94
2022-10-09T12:08:18.295Z,16.79
2022-10-09T12:10:53.547Z,16.73
2022-10-09T12:13:36.833Z,16.67
2022-10-09T12:16:03.868Z,16.57
2022-10-09T12:18:34.728Z,16.61
2022-10-09T12:21:06.881Z,16.63
2022-10-09T12:23:37.309Z,16.61
2022-10-09T12:26:04.638Z,16.49
2022-10-09T12:28:44.696Z,16.52
2022-10-09T12:31:25.847Z,16.54
2022-10-09T12:33:57.521Z,16.52
2022-10-09T12:36:30.009Z,16.55
2022-10-09T12:38:56.640Z,16.53
2022-10-09T12:41:32.202Z,16.52
2022-10-09T12:43:59.539Z,16.51
2022-10-09T12:46:31.812Z,16.50
2022-10-09T12:49:01.079Z,16.56
2022-10-09T12:51:30.081Z,16.65
2022-10-09T12:53:57.104Z,16.63
2022-10-09T12:56:38.092Z,16.64
2022-10-09T12:59:07.085Z,16.69
2022-10-09T13:01:35.089Z,16.69
2022-10-09T13:04:04.996Z,16.77
2022-10-09T13:06:44.662Z,16.66
2022-10-09T13:09:34.118Z,16.59
2022-10-09T13:12:16.156Z,16.63
2022-10-09T13:14:46.092Z,16.64
2022-10-09T13:20:18.638Z,16.85
2022-10-09T13:22:56.320Z,17.33
2022-10-09T13:25:39.447Z,17.38
2022-10-09T13:28:06.429Z,17.03
2022-10-09T13:30:33.580Z,16.70
2022-10-09T13:33:00.173Z,16.56
2022-10-09T13:35:26.636Z,16.48
2022-10-09T13:37:53.219Z,16.44
2022-10-09T13:40:21.730Z,16.37
2022-10-09T13:42:55.673Z,16.32
2022-10-09T13:45:22.856Z,16.27
2022-10-09T13:47:49.546Z,16.28
2022-10-09T13:50:17.839Z,16.26
2022-10-09T13:52:44.291Z,16.30
2022-10-09T13:55:11.155Z,16.31
2022-10-09T13:57:37.970Z,16.29
2022-10-09T14:00:06.383Z,16.25
2022-10-09T14:02:32.852Z,16.22
2022-10-09T14:04:59.348Z,16.22
2022-10-09T14:07:25.873Z,16.24
2022-10-09T14:09:52.359Z,16.23
2022-10-09T14:12:18.812Z,16.25
2022-10-09T14:14:45.223Z,16.24
2022-10-09T14:17:11.687Z,16.25
2022-10-09T14:19:38.160Z,16.25
2022-10-09T14:22:04.551Z,16.25
2022-10-09T14:24:31.002Z,16.29
2022-10-09T14:26:57.526Z,16.29
2022-10-09T14:29:24.070Z,16.26
2022-10-09T14:31:53.874Z,16.28
2022-10-09T14:34:20.517Z,16.27
2022-10-09T14:36:47.191Z,16.25
2022-10-09T14:39:13.606Z,16.28
2022-10-09T14:41:40.776Z,16.24
2022-10-09T14:44:09.566Z,16.22
2022-10-09T14:46:37.830Z,16.25
2022-10-09T14:49:07.460Z,16.23
2022-10-09T14:51:37.125Z,16.22
2022-10-09T14:54:04.560Z,16.24
2022-10-09T14:56:31.115Z,16.22
2022-10-09T14:59:00.537Z,16.22
2022-10-09T15:01:28.022Z,16.18
2022-10-09T15:03:54.557Z,16.19
2022-10-09T15:06:24.893Z,16.17
2022-10-09T15:08:55.288Z,16.16
2022-10-09T15:11:22.097Z,16.10
2022-10-09T15:13:48.570Z,16.09
2022-10-09T15:16:18.260Z,16.08
2022-10-09T15:18:45.425Z,16.07
2022-10-09T15:21:15.020Z,16.05
2022-10-09T15:23:41.798Z,16.03
2022-10-09T15:26:08.785Z,15.97
2022-10-09T15:28:39.842Z,15.98
2022-10-09T15:31:14.779Z,15.98
2022-10-09T15:33:41.245Z,15.95
2022-10-09T15:36:07.642Z,15.91
2022-10-09T15:38:34.140Z,15.90
2022-10-09T15:41:00.507Z,15.84
2022-10-09T15:43:27.348Z,15.83
2022-10-09T15:46:02.522Z,15.84
2022-10-09T15:48:29.290Z,15.81
2022-10-09T15:50:55.908Z,15.81
2022-10-09T15:53:24.582Z,15.82
2022-10-09T15:55:52.981Z,15.80
2022-10-09T15:58:20.394Z,15.79
2022-10-09T16:00:49.554Z,15.75
2022-10-09T16:03:18.928Z,15.71
2022-10-09T16:05:48.909Z,15.69
2022-10-09T16:08:17.544Z,15.66
2022-10-09T16:10:49.053Z,15.61
2022-10-09T16:13:16.217Z,15.58
2022-10-09T16:15:43.860Z,15.58
2022-10-09T16:18:11.207Z,15.56
2022-10-09T16:20:38.831Z,15.50
2022-10-09T16:23:06.457Z,15.49
2022-10-09T16:25:33.767Z,15.46
2022-10-09T16:28:06.167Z,15.41
2022-10-09T16:30:33.614Z,15.38
2022-10-09T16:33:00.030Z,15.33
2022-10-09T16:35:28.753Z,15.31
2022-10-09T16:38:00.549Z,15.28
2022-10-09T16:40:56.870Z,15.24
2022-10-09T16:43:14.094Z,15.21
2022-10-09T16:45:44.096Z,15.18
2022-10-09T16:48:10.662Z,15.14
2022-10-09T16:50:42.276Z,15.09
2022-10-09T16:53:09.211Z,15.01
2022-10-09T16:55:35.922Z,14.98
2022-10-09T16:58:02.345Z,14.92
2022-10-09T17:00:28.984Z,14.87
2022-10-09T17:02:55.598Z,14.83
2022-10-09T17:05:21.984Z,14.79
2022-10-09T17:07:48.623Z,14.72
2022-10-09T17:10:15.427Z,14.70
2022-10-09T17:12:42.280Z,14.63
2022-10-09T17:15:08.790Z,14.58
2022-10-09T17:17:35.115Z,14.48
2022-10-09T17:20:01.593Z,14.48
2022-10-09T17:22:27.976Z,14.45
2022-10-09T17:24:54.497Z,14.40
2022-10-09T17:27:20.994Z,14.30
2022-10-09T17:29:47.438Z,14.29
2022-10-09T17:32:13.867Z,14.22
2022-10-09T17:34:45.740Z,14.24
2022-10-09T17:37:13.130Z,14.17
2022-10-09T17:39:39.963Z,14.18
2022-10-09T17:42:06.388Z,14.14
2022-10-09T17:44:32.759Z,14.09
2022-10-09T17:47:00.722Z,14.02
2022-10-09T17:49:27.610Z,14.00
2022-10-09T17:51:54.510Z,14.01
2022-10-09T17:54:21.351Z,13.95
2022-10-09T17:56:47.747Z,13.98
2022-10-09T17:59:17.251Z,13.95
2022-10-09T18:01:44.005Z,13.93
2022-10-09T18:04:15.860Z,13.93
2022-10-09T18:06:42.411Z,13.90
2022-10-09T18:09:08.973Z,13.83
2022-10-09T18:11:35.406Z,13.83
2022-10-09T18:14:01.993Z,13.76
2022-10-09T18:16:36.323Z,13.75
2022-10-09T18:19:12.105Z,13.69
2022-10-09T18:21:41.589Z,13.65
2022-10-09T18:24:08.070Z,13.60
2022-10-09T18:26:34.524Z,13.62
2022-10-09T18:29:01.647Z,13.49
2022-10-09T18:31:28.520Z,13.48
2022-10-09T18:33:54.947Z,13.44
2022-10-09T18:36:24.189Z,13.42
2022-10-09T18:38:53.826Z,13.41
2022-10-09T18:41:22.506Z,13.34
2022-10-09T18:43:49.991Z,13.32
2022-10-09T18:46:17.703Z,13.29
2022-10-09T18:48:44.826Z,13.24
2022-10-09T18:51:15.696Z,13.21
2022-10-09T18:53:45.282Z,13.13
2022-10-09T18:56:12.293Z,13.03
2022-10-09T18:58:41.934Z,12.96
2022-10-09T19:01:08.621Z,12.85
2022-10-09T19:03:36.719Z,12.88
2022-10-09T19:06:04.249Z,12.88
2022-10-09T19:08:30.670Z,12.80
2022-10-09T19:10:57.065Z,12.78
2022-10-09T19:13:23.460Z,12.79
2022-10-09T19:15:54.832Z,12.72
2022-10-09T19:18:22.117Z,12.68
2022-10-09T19:20:48.729Z,12.63
2022-10-09T19:23:15.738Z,12.55
2022-10-09T19:25:49.365Z,12.54
2022-10-09T19:28:16.161Z,12.53
2022-10-09T19:30:43.459Z,12.47
2022-10-09T19:33:10.367Z,12.44
2022-10-09T19:35:45.944Z,12.44
2022-10-09T19:38:13.086Z,12.42
2022-10-09T19:40:39.632Z,12.31
2022-10-09T19:43:05.994Z,12.32
2022-10-09T19:45:32.712Z,12.27
2022-10-09T19:47:59.666Z,12.28
2022-10-09T19:50:26.259Z,12.20
2022-10-09T19:52:52.588Z,12.22
2022-10-09T19:55:18.987Z,12.24
2022-10-09T19:57:45.479Z,12.21
2022-10-09T20:00:12.329Z,12.18
2022-10-09T20:02:38.795Z,12.11
2022-10-09T20:05:05.653Z,12.08
2022-10-09T20:07:32.073Z,12.07
2022-10-09T20:09:58.842Z,12.03
2022-10-09T20:12:25.351Z,12.00
2022-10-09T20:14:51.715Z,11.95
2022-10-09T20:17:18.144Z,11.94
2022-10-09T20:19:45.784Z,11.92
2022-10-09T20:22:12.284Z,11.87
2022-10-09T20:24:38.900Z,11.86
2022-10-09T20:27:05.287Z,11.88
2022-10-09T20:29:31.698Z,11.83
2022-10-09T20:31:58.315Z,11.80
2022-10-09T20:34:26.899Z,11.77
2022-10-09T20:36:53.819Z,11.72
2022-10-09T20:39:21.349Z,11.71
2022-10-09T20:41:48.332Z,11.68
2022-10-09T20:44:15.292Z,11.68
2022-10-09T20:46:41.793Z,11.62
2022-10-09T20:49:11.952Z,11.62
2022-10-09T20:51:39.189Z,11.58
2022-10-09T20:54:06.796Z,11.56
2022-10-09T20:56:34.106Z,11.62
2022-10-09T20:59:01.435Z,11.57
2022-10-09T21:01:28.738Z,11.51
2022-10-09T21:03:57.104Z,11.55
2022-10-09T21:06:23.872Z,11.50
2022-10-09T21:08:50.747Z,11.47
2022-10-09T21:11:18.440Z,11.43
2022-10-09T21:13:46.458Z,11.44
2022-10-09T21:16:16.461Z,11.43
2022-10-09T21:18:43.378Z,11.38
2022-10-09T21:21:16.662Z,11.35
2022-10-09T21:23:44.777Z,11.32
2022-10-09T21:26:13.988Z,11.26
2022-10-09T21:28:40.622Z,11.22
2022-10-09T21:31:11.647Z,11.22
2022-10-09T21:33:38.135Z,11.16
2022-10-09T21:36:11.136Z,11.20
2022-10-09T21:38:37.975Z,11.15
2022-10-09T21:41:04.585Z,11.17
2022-10-09T21:43:30.983Z,11.19
2022-10-09T21:45:57.322Z,11.18
2022-10-09T21:48:23.708Z,11.16
2022-10-09T21:50:50.126Z,11.14
2022-10-09T21:53:16.496Z,11.10
2022-10-09T21:55:42.927Z,11.09
2022-10-09T21:58:10.357Z,11.11
2022-10-09T22:00:36.844Z,11.07
2022-10-09T22:03:03.502Z,11.04
2022-10-09T22:05:29.881Z,11.00
2022-10-09T22:07:56.662Z,10.98
2022-10-09T22:10:23.123Z,10.96
2022-10-09T22:12:49.870Z,10.97
2022-10-09T22:15:16.906Z,10.90
2022-10-09T22:17:43.321Z,10.86
2022-10-09T22:20:09.920Z,10.84
2022-10-09T22:22:36.645Z,10.80
2022-10-09T22:25:03.305Z,10.78
2022-10-09T22:27:29.709Z,10.78
2022-10-09T22:29:56.216Z,10.73
2022-10-09T22:32:22.790Z,10.68
2022-10-09T22:34:54.151Z,10.64
2022-10-09T22:37:21.121Z,10.64
2022-10-09T22:39:49.004Z,10.64
2022-10-09T22:42:15.771Z,10.65
2022-10-09T22:44:43.084Z,10.61
2022-10-09T22:47:09.734Z,10.63
2022-10-09T22:49:36.246Z,10.64
2022-10-09T22:52:02.649Z,10.61
2022-10-09T22:54:29.077Z,10.61
2022-10-09T22:56:55.803Z,10.58
2022-10-09T22:59:22.411Z,10.61
2022-10-09T23:01:53.294Z,10.60
2022-10-09T23:04:21.497Z,10.58
2022-10-09T23:06:56.600Z,10.57
2022-10-09T23:09:25.312Z,10.56
2022-10-09T23:11:51.873Z,10.53
2022-10-09T23:14:19.325Z,10.51
2022-10-09T23:16:45.875Z,10.53
2022-10-09T23:19:12.894Z,10.50
2022-10-09T23:21:41.561Z,10.52
2022-10-09T23:24:10.455Z,10.49
2022-10-09T23:26:38.404Z,10.46
2022-10-09T23:29:08.430Z,10.47
2022-10-09T23:31:35.626Z,10.47
2022-10-09T23:34:03.544Z,10.49
2022-10-09T23:36:30.212Z,10.49
2022-10-09T23:38:58.365Z,10.49
2022-10-09T23:41:27.002Z,10.48
2022-10-09T23:43:54.427Z,10.46
2022-10-09T23:46:23.771Z,10.43
2022-10-09T23:48:51.959Z,10.39
2022-10-09T23:51:20.160Z,10.36
2022-10-09T23:53:47.416Z,10.38
2022-10-09T23:56:18.829Z,10.40
2022-10-09T23:58:46.222Z,10.39
